sensor_id;sensor_type;location;lat;lon;timestamp;temperature;humidity
23231;DHT22;11784;49.818;8.632;2022-12-15T00:01:21;3.20;72.60
23231;DHT22;11784;49.818;8.632;2022-12-15T00:04:05;3.20;72.70
23231;DHT22;11784;49.818;8.632;2022-12-15T00:06:49;3.30;72.90
23231;DHT22;11784;49.818;8.632;2022-12-15T00:09:33;3.30;72.50
23231;DHT22;11784;49.818;8.632;2022-12-15T00:12:17;3.30;72.60
23231;DHT22;11784;49.818;8.632;2022-12-15T00:15:01;3.30;72.30
23231;DHT22;11784;49.818;8.632;2022-12-15T00:17:45;3.40;71.50
23231;DHT22;11784;49.818;8.632;2022-12-15T00:20:29;3.30;71.30
23231;DHT22;11784;49.818;8.632;2022-12-15T00:23:13;3.30;71.30
23231;DHT22;11784;49.818;8.632;2022-12-15T00:25:57;3.30;71.20
23231;DHT22;11784;49.818;8.632;2022-12-15T00:28:41;3.30;71.40
23231;DHT22;11784;49.818;8.632;2022-12-15T00:31:25;3.30;71.60
23231;DHT22;11784;49.818;8.632;2022-12-15T00:34:10;3.30;71.80
23231;DHT22;11784;49.818;8.632;2022-12-15T00:36:54;3.30;71.50
23231;DHT22;11784;49.818;8.632;2022-12-15T00:39:39;3.30;72.40
23231;DHT22;11784;49.818;8.632;2022-12-15T00:42:05;3.30;72.80
23231;DHT22;11784;49.818;8.632;2022-12-15T00:44:32;3.30;72.80
23231;DHT22;11784;49.818;8.632;2022-12-15T00:46:58;3.40;72.60
23231;DHT22;11784;49.818;8.632;2022-12-15T00:49:26;3.40;72.00
23231;DHT22;11784;49.818;8.632;2022-12-15T00:52:10;3.40;71.70
23231;DHT22;11784;49.818;8.632;2022-12-15T00:54:54;3.40;71.70
23231;DHT22;11784;49.818;8.632;2022-12-15T00:57:39;3.40;72.10
23231;DHT22;11784;49.818;8.632;2022-12-15T01:00:24;3.40;72.30
23231;DHT22;11784;49.818;8.632;2022-12-15T01:03:18;3.40;72.30
23231;DHT22;11784;49.818;8.632;2022-12-15T01:06:11;3.40;72.30
23231;DHT22;11784;49.818;8.632;2022-12-15T01:08:56;3.40;71.70
23231;DHT22;11784;49.818;8.632;2022-12-15T01:11:40;3.40;72.20
23231;DHT22;11784;49.818;8.632;2022-12-15T01:14:25;3.40;72.00
23231;DHT22;11784;49.818;8.632;2022-12-15T01:17:09;3.40;72.20
23231;DHT22;11784;49.818;8.632;2022-12-15T01:19:54;3.40;72.10
23231;DHT22;11784;49.818;8.632;2022-12-15T01:22:38;3.40;72.10
23231;DHT22;11784;49.818;8.632;2022-12-15T01:25:04;3.40;72.00
23231;DHT22;11784;49.818;8.632;2022-12-15T01:27:30;3.40;71.90
23231;DHT22;11784;49.818;8.632;2022-12-15T01:29:56;3.30;71.70
23231;DHT22;11784;49.818;8.632;2022-12-15T01:32:21;3.30;72.30
23231;DHT22;11784;49.818;8.632;2022-12-15T01:34:47;3.30;72.50
23231;DHT22;11784;49.818;8.632;2022-12-15T01:37:13;3.30;72.00
23231;DHT22;11784;49.818;8.632;2022-12-15T01:39:38;3.30;72.00
23231;DHT22;11784;49.818;8.632;2022-12-15T01:42:23;3.30;71.70
23231;DHT22;11784;49.818;8.632;2022-12-15T01:44:50;3.40;71.90
23231;DHT22;11784;49.818;8.632;2022-12-15T01:47:16;3.30;71.90
23231;DHT22;11784;49.818;8.632;2022-12-15T01:49:42;3.30;73.30
23231;DHT22;11784;49.818;8.632;2022-12-15T01:52:14;3.30;73.00
23231;DHT22;11784;49.818;8.632;2022-12-15T01:54:54;3.30;74.00
23231;DHT22;11784;49.818;8.632;2022-12-15T01:57:28;3.30;73.30
23231;DHT22;11784;49.818;8.632;2022-12-15T01:59:58;3.30;72.50
23231;DHT22;11784;49.818;8.632;2022-12-15T02:02:28;3.30;72.00
23231;DHT22;11784;49.818;8.632;2022-12-15T02:04:56;3.30;71.70
23231;DHT22;11784;49.818;8.632;2022-12-15T02:07:22;3.30;71.40
23231;DHT22;11784;49.818;8.632;2022-12-15T02:09:49;3.20;71.70
23231;DHT22;11784;49.818;8.632;2022-12-15T02:21:09;3.20;72.60
23231;DHT22;11784;49.818;8.632;2022-12-15T02:23:53;3.20;72.50
23231;DHT22;11784;49.818;8.632;2022-12-15T02:32:09;3.10;72.10
23231;DHT22;11784;49.818;8.632;2022-12-15T02:34:42;3.10;71.40
23231;DHT22;11784;49.818;8.632;2022-12-15T02:37:22;3.10;70.80
23231;DHT22;11784;49.818;8.632;2022-12-15T02:39:49;3.10;70.80
23231;DHT22;11784;49.818;8.632;2022-12-15T02:42:15;3.00;71.20
23231;DHT22;11784;49.818;8.632;2022-12-15T02:44:49;3.00;71.80
23231;DHT22;11784;49.818;8.632;2022-12-15T02:47:33;3.00;71.60
23231;DHT22;11784;49.818;8.632;2022-12-15T02:53:19;2.90;72.10
23231;DHT22;11784;49.818;8.632;2022-12-15T02:56:07;2.80;72.10
23231;DHT22;11784;49.818;8.632;2022-12-15T02:59:02;2.80;72.30
23231;DHT22;11784;49.818;8.632;2022-12-15T03:04:13;2.70;72.20
23231;DHT22;11784;49.818;8.632;2022-12-15T03:06:38;2.60;72.30
23231;DHT22;11784;49.818;8.632;2022-12-15T03:09:04;2.60;72.40
23231;DHT22;11784;49.818;8.632;2022-12-15T03:11:30;2.50;72.30
23231;DHT22;11784;49.818;8.632;2022-12-15T03:13:55;2.60;72.20
23231;DHT22;11784;49.818;8.632;2022-12-15T03:16:21;2.50;71.70
23231;DHT22;11784;49.818;8.632;2022-12-15T03:18:47;2.50;71.90
23231;DHT22;11784;49.818;8.632;2022-12-15T03:21:12;2.40;71.80
23231;DHT22;11784;49.818;8.632;2022-12-15T03:23:38;2.40;71.60
23231;DHT22;11784;49.818;8.632;2022-12-15T03:26:04;2.40;71.60
23231;DHT22;11784;49.818;8.632;2022-12-15T03:28:32;2.40;71.60
23231;DHT22;11784;49.818;8.632;2022-12-15T03:30:57;2.40;71.50
23231;DHT22;11784;49.818;8.632;2022-12-15T03:33:23;2.30;71.20
23231;DHT22;11784;49.818;8.632;2022-12-15T03:35:49;2.30;71.10
23231;DHT22;11784;49.818;8.632;2022-12-15T03:38:15;2.30;71.00
23231;DHT22;11784;49.818;8.632;2022-12-15T03:40:41;2.30;71.00
23231;DHT22;11784;49.818;8.632;2022-12-15T03:43:07;2.20;70.80
23231;DHT22;11784;49.818;8.632;2022-12-15T03:45:32;2.20;70.70
23231;DHT22;11784;49.818;8.632;2022-12-15T03:47:58;2.20;71.00
23231;DHT22;11784;49.818;8.632;2022-12-15T03:50:26;2.20;71.10
23231;DHT22;11784;49.818;8.632;2022-12-15T03:52:57;2.10;71.20
23231;DHT22;11784;49.818;8.632;2022-12-15T03:55:23;2.10;71.10
23231;DHT22;11784;49.818;8.632;2022-12-15T03:57:49;2.10;71.20
23231;DHT22;11784;49.818;8.632;2022-12-15T04:00:16;2.10;71.30
23231;DHT22;11784;49.818;8.632;2022-12-15T04:02:43;2.20;71.20
23231;DHT22;11784;49.818;8.632;2022-12-15T04:05:16;2.20;71.00
23231;DHT22;11784;49.818;8.632;2022-12-15T04:07:42;2.10;70.60
23231;DHT22;11784;49.818;8.632;2022-12-15T04:10:08;2.10;70.80
23231;DHT22;11784;49.818;8.632;2022-12-15T04:12:33;2.10;70.50
23231;DHT22;11784;49.818;8.632;2022-12-15T04:14:59;2.10;69.80
23231;DHT22;11784;49.818;8.632;2022-12-15T04:17:24;2.10;69.70
23231;DHT22;11784;49.818;8.632;2022-12-15T04:19:50;2.10;70.00
23231;DHT22;11784;49.818;8.632;2022-12-15T04:22:38;2.10;70.70
23231;DHT22;11784;49.818;8.632;2022-12-15T04:25:05;2.10;70.60
23231;DHT22;11784;49.818;8.632;2022-12-15T04:27:50;2.00;70.70
23231;DHT22;11784;49.818;8.632;2022-12-15T04:30:34;2.00;70.90
23231;DHT22;11784;49.818;8.632;2022-12-15T04:33:19;2.10;70.70
23231;DHT22;11784;49.818;8.632;2022-12-15T04:36:05;2.00;70.90
23231;DHT22;11784;49.818;8.632;2022-12-15T04:38:49;2.10;71.80
23231;DHT22;11784;49.818;8.632;2022-12-15T04:41:34;2.10;72.30
23231;DHT22;11784;49.818;8.632;2022-12-15T04:44:18;2.10;72.70
23231;DHT22;11784;49.818;8.632;2022-12-15T04:47:02;2.10;72.70
23231;DHT22;11784;49.818;8.632;2022-12-15T04:49:46;2.20;72.70
23231;DHT22;11784;49.818;8.632;2022-12-15T04:52:30;2.20;72.30
23231;DHT22;11784;49.818;8.632;2022-12-15T04:55:14;2.20;72.20
23231;DHT22;11784;49.818;8.632;2022-12-15T04:58:04;2.20;71.90
23231;DHT22;11784;49.818;8.632;2022-12-15T05:00:50;2.30;71.60
23231;DHT22;11784;49.818;8.632;2022-12-15T05:03:34;2.20;71.80
23231;DHT22;11784;49.818;8.632;2022-12-15T05:06:18;2.20;71.60
23231;DHT22;11784;49.818;8.632;2022-12-15T05:09:02;2.20;71.40
23231;DHT22;11784;49.818;8.632;2022-12-15T05:11:46;2.20;71.20
23231;DHT22;11784;49.818;8.632;2022-12-15T05:14:30;2.20;71.20
23231;DHT22;11784;49.818;8.632;2022-12-15T05:17:14;2.20;71.10
23231;DHT22;11784;49.818;8.632;2022-12-15T05:19:58;2.20;70.10
23231;DHT22;11784;49.818;8.632;2022-12-15T05:22:42;2.20;70.70
23231;DHT22;11784;49.818;8.632;2022-12-15T05:25:26;2.20;70.60
23231;DHT22;11784;49.818;8.632;2022-12-15T05:28:10;2.10;70.40
23231;DHT22;11784;49.818;8.632;2022-12-15T05:30:54;2.10;70.50
23231;DHT22;11784;49.818;8.632;2022-12-15T05:33:38;2.10;70.20
23231;DHT22;11784;49.818;8.632;2022-12-15T05:36:03;2.00;70.20
23231;DHT22;11784;49.818;8.632;2022-12-15T05:38:29;2.00;70.20
23231;DHT22;11784;49.818;8.632;2022-12-15T05:40:58;2.00;70.10
23231;DHT22;11784;49.818;8.632;2022-12-15T05:43:24;2.00;70.10
23231;DHT22;11784;49.818;8.632;2022-12-15T05:45:50;2.00;70.20
23231;DHT22;11784;49.818;8.632;2022-12-15T05:48:16;1.90;70.10
23231;DHT22;11784;49.818;8.632;2022-12-15T05:50:41;1.90;69.80
23231;DHT22;11784;49.818;8.632;2022-12-15T05:53:07;1.90;69.50
23231;DHT22;11784;49.818;8.632;2022-12-15T05:55:32;1.80;69.30
23231;DHT22;11784;49.818;8.632;2022-12-15T05:57:58;1.80;69.50
23231;DHT22;11784;49.818;8.632;2022-12-15T06:00:23;1.80;69.00
23231;DHT22;11784;49.818;8.632;2022-12-15T06:02:49;1.70;68.90
23231;DHT22;11784;49.818;8.632;2022-12-15T06:05:14;1.70;69.20
23231;DHT22;11784;49.818;8.632;2022-12-15T06:07:40;1.70;69.30
23231;DHT22;11784;49.818;8.632;2022-12-15T06:10:06;1.70;69.10
23231;DHT22;11784;49.818;8.632;2022-12-15T06:12:31;1.60;68.90
23231;DHT22;11784;49.818;8.632;2022-12-15T06:14:57;1.60;68.90
23231;DHT22;11784;49.818;8.632;2022-12-15T06:17:23;1.60;69.20
23231;DHT22;11784;49.818;8.632;2022-12-15T06:19:49;1.60;70.10
23231;DHT22;11784;49.818;8.632;2022-12-15T06:22:14;1.60;69.20
23231;DHT22;11784;49.818;8.632;2022-12-15T06:24:40;1.50;69.80
23231;DHT22;11784;49.818;8.632;2022-12-15T06:27:05;1.50;69.00
23231;DHT22;11784;49.818;8.632;2022-12-15T06:29:31;1.50;69.10
23231;DHT22;11784;49.818;8.632;2022-12-15T06:31:56;1.50;69.00
23231;DHT22;11784;49.818;8.632;2022-12-15T06:34:22;1.50;69.20
23231;DHT22;11784;49.818;8.632;2022-12-15T06:36:47;1.50;69.20
23231;DHT22;11784;49.818;8.632;2022-12-15T06:39:14;1.40;69.40
23231;DHT22;11784;49.818;8.632;2022-12-15T06:41:41;1.40;69.40
23231;DHT22;11784;49.818;8.632;2022-12-15T06:44:06;1.40;69.70
23231;DHT22;11784;49.818;8.632;2022-12-15T06:46:32;1.40;69.80
23231;DHT22;11784;49.818;8.632;2022-12-15T06:48:59;1.40;69.70
23231;DHT22;11784;49.818;8.632;2022-12-15T06:51:25;1.40;69.80
23231;DHT22;11784;49.818;8.632;2022-12-15T06:53:51;1.40;69.50
23231;DHT22;11784;49.818;8.632;2022-12-15T06:56:29;1.40;69.40
23231;DHT22;11784;49.818;8.632;2022-12-15T06:58:56;1.30;69.20
23231;DHT22;11784;49.818;8.632;2022-12-15T07:01:23;1.30;69.10
23231;DHT22;11784;49.818;8.632;2022-12-15T07:03:50;1.30;69.10
23231;DHT22;11784;49.818;8.632;2022-12-15T07:06:16;1.30;68.90
23231;DHT22;11784;49.818;8.632;2022-12-15T07:08:43;1.30;69.10
23231;DHT22;11784;49.818;8.632;2022-12-15T07:11:11;1.30;69.20
23231;DHT22;11784;49.818;8.632;2022-12-15T07:13:37;1.30;69.00
23231;DHT22;11784;49.818;8.632;2022-12-15T07:16:04;1.30;68.70
23231;DHT22;11784;49.818;8.632;2022-12-15T07:18:31;1.30;68.70
23231;DHT22;11784;49.818;8.632;2022-12-15T07:21:01;1.20;68.60
23231;DHT22;11784;49.818;8.632;2022-12-15T07:23:26;1.20;68.50
23231;DHT22;11784;49.818;8.632;2022-12-15T07:25:53;1.20;68.40
23231;DHT22;11784;49.818;8.632;2022-12-15T07:28:19;1.20;68.60
23231;DHT22;11784;49.818;8.632;2022-12-15T07:30:44;1.20;69.10
23231;DHT22;11784;49.818;8.632;2022-12-15T07:33:10;1.20;70.20
23231;DHT22;11784;49.818;8.632;2022-12-15T07:35:35;1.20;69.10
23231;DHT22;11784;49.818;8.632;2022-12-15T07:38:15;1.20;68.60
23231;DHT22;11784;49.818;8.632;2022-12-15T07:40:43;1.20;68.20
23231;DHT22;11784;49.818;8.632;2022-12-15T07:43:09;1.20;68.30
23231;DHT22;11784;49.818;8.632;2022-12-15T07:45:35;1.20;68.60
23231;DHT22;11784;49.818;8.632;2022-12-15T07:48:01;1.20;69.00
23231;DHT22;11784;49.818;8.632;2022-12-15T07:50:26;1.20;69.10
23231;DHT22;11784;49.818;8.632;2022-12-15T07:52:53;1.30;69.10
23231;DHT22;11784;49.818;8.632;2022-12-15T07:55:19;1.20;69.00
23231;DHT22;11784;49.818;8.632;2022-12-15T07:57:46;1.30;68.90
23231;DHT22;11784;49.818;8.632;2022-12-15T08:00:12;1.30;69.10
23231;DHT22;11784;49.818;8.632;2022-12-15T08:07:35;1.40;69.00
23231;DHT22;11784;49.818;8.632;2022-12-15T08:10:01;1.40;69.00
23231;DHT22;11784;49.818;8.632;2022-12-15T08:12:27;1.50;69.20
23231;DHT22;11784;49.818;8.632;2022-12-15T08:14:53;1.50;68.80
23231;DHT22;11784;49.818;8.632;2022-12-15T08:17:18;1.50;70.10
23231;DHT22;11784;49.818;8.632;2022-12-15T08:19:44;1.50;70.70
23231;DHT22;11784;49.818;8.632;2022-12-15T08:22:09;1.60;71.00
23231;DHT22;11784;49.818;8.632;2022-12-15T08:24:36;1.70;71.30
23231;DHT22;11784;49.818;8.632;2022-12-15T08:27:02;1.80;71.60
23231;DHT22;11784;49.818;8.632;2022-12-15T08:29:27;1.80;71.80
23231;DHT22;11784;49.818;8.632;2022-12-15T08:31:53;1.90;71.70
23231;DHT22;11784;49.818;8.632;2022-12-15T08:34:19;2.00;71.90
23231;DHT22;11784;49.818;8.632;2022-12-15T08:36:45;2.00;71.70
23231;DHT22;11784;49.818;8.632;2022-12-15T08:39:10;2.00;71.60
23231;DHT22;11784;49.818;8.632;2022-12-15T08:41:36;2.20;71.90
23231;DHT22;11784;49.818;8.632;2022-12-15T08:44:04;2.20;71.90
23231;DHT22;11784;49.818;8.632;2022-12-15T08:46:32;2.30;71.80
23231;DHT22;11784;49.818;8.632;2022-12-15T08:49:02;2.30;72.00
23231;DHT22;11784;49.818;8.632;2022-12-15T08:51:29;2.40;72.00
23231;DHT22;11784;49.818;8.632;2022-12-15T08:53:56;2.40;71.90
23231;DHT22;11784;49.818;8.632;2022-12-15T08:56:30;2.50;72.60
23231;DHT22;11784;49.818;8.632;2022-12-15T08:58:58;2.60;71.80
23231;DHT22;11784;49.818;8.632;2022-12-15T09:01:25;2.60;71.70
23231;DHT22;11784;49.818;8.632;2022-12-15T09:03:52;2.70;71.80
23231;DHT22;11784;49.818;8.632;2022-12-15T09:06:20;2.70;71.90
23231;DHT22;11784;49.818;8.632;2022-12-15T09:08:47;2.70;71.70
23231;DHT22;11784;49.818;8.632;2022-12-15T09:11:12;2.80;72.10
23231;DHT22;11784;49.818;8.632;2022-12-15T09:13:38;2.80;72.00
23231;DHT22;11784;49.818;8.632;2022-12-15T09:16:06;2.90;72.00
23231;DHT22;11784;49.818;8.632;2022-12-15T09:18:33;2.90;71.60
23231;DHT22;11784;49.818;8.632;2022-12-15T09:21:04;3.00;71.80
23231;DHT22;11784;49.818;8.632;2022-12-15T09:23:30;3.00;71.60
23231;DHT22;11784;49.818;8.632;2022-12-15T09:26:03;3.00;71.60
23231;DHT22;11784;49.818;8.632;2022-12-15T09:28:29;3.10;71.70
23231;DHT22;11784;49.818;8.632;2022-12-15T09:31:26;3.10;71.60
23231;DHT22;11784;49.818;8.632;2022-12-15T09:33:58;3.20;70.80
23231;DHT22;11784;49.818;8.632;2022-12-15T09:36:24;3.20;70.80
23231;DHT22;11784;49.818;8.632;2022-12-15T09:38:50;3.20;70.60
23231;DHT22;11784;49.818;8.632;2022-12-15T09:41:30;3.30;70.10
23231;DHT22;11784;49.818;8.632;2022-12-15T09:44:04;3.30;70.20
23231;DHT22;11784;49.818;8.632;2022-12-15T09:49:52;3.40;70.40
23231;DHT22;11784;49.818;8.632;2022-12-15T09:55:20;3.50;70.10
23231;DHT22;11784;49.818;8.632;2022-12-15T09:57:54;3.60;70.10
23231;DHT22;11784;49.818;8.632;2022-12-15T10:00:39;3.70;70.20
23231;DHT22;11784;49.818;8.632;2022-12-15T10:06:15;3.90;68.60
23231;DHT22;11784;49.818;8.632;2022-12-15T10:08:52;4.00;68.30
23231;DHT22;11784;49.818;8.632;2022-12-15T10:11:29;4.00;68.40
23231;DHT22;11784;49.818;8.632;2022-12-15T10:19:25;4.10;68.60
23231;DHT22;11784;49.818;8.632;2022-12-15T10:21:55;4.10;68.90
23231;DHT22;11784;49.818;8.632;2022-12-15T10:24:37;4.20;68.60
23231;DHT22;11784;49.818;8.632;2022-12-15T10:30:07;4.40;68.00
23231;DHT22;11784;49.818;8.632;2022-12-15T10:33:02;4.40;67.70
23231;DHT22;11784;49.818;8.632;2022-12-15T10:35:34;4.40;67.50
23231;DHT22;11784;49.818;8.632;2022-12-15T10:38:12;4.50;67.00
23231;DHT22;11784;49.818;8.632;2022-12-15T10:40:53;4.50;66.90
23231;DHT22;11784;49.818;8.632;2022-12-15T10:43:30;4.60;67.10
23231;DHT22;11784;49.818;8.632;2022-12-15T10:46:02;4.60;66.90
23231;DHT22;11784;49.818;8.632;2022-12-15T10:48:28;4.60;66.60
23231;DHT22;11784;49.818;8.632;2022-12-15T10:51:14;4.70;66.60
23231;DHT22;11784;49.818;8.632;2022-12-15T10:53:51;4.60;66.60
23231;DHT22;11784;49.818;8.632;2022-12-15T10:56:28;4.70;66.90
23231;DHT22;11784;49.818;8.632;2022-12-15T10:59:00;4.70;66.90
23231;DHT22;11784;49.818;8.632;2022-12-15T11:01:28;4.70;66.80
23231;DHT22;11784;49.818;8.632;2022-12-15T11:03:54;4.80;66.70
23231;DHT22;11784;49.818;8.632;2022-12-15T11:06:29;4.80;66.70
23231;DHT22;11784;49.818;8.632;2022-12-15T11:09:07;4.90;66.70
23231;DHT22;11784;49.818;8.632;2022-12-15T11:11:35;4.90;66.60
23231;DHT22;11784;49.818;8.632;2022-12-15T11:14:47;4.90;66.90
23231;DHT22;11784;49.818;8.632;2022-12-15T11:17:21;4.90;66.30
23231;DHT22;11784;49.818;8.632;2022-12-15T11:19:57;4.90;66.70
23231;DHT22;11784;49.818;8.632;2022-12-15T11:22:50;4.90;66.40
23231;DHT22;11784;49.818;8.632;2022-12-15T11:27:53;4.90;65.80
23231;DHT22;11784;49.818;8.632;2022-12-15T11:30:23;4.80;65.70
23231;DHT22;11784;49.818;8.632;2022-12-15T11:32:54;4.80;65.60
23231;DHT22;11784;49.818;8.632;2022-12-15T11:35:32;4.70;65.80
23231;DHT22;11784;49.818;8.632;2022-12-15T11:40:41;4.50;66.80
23231;DHT22;11784;49.818;8.632;2022-12-15T11:43:33;4.50;67.30
23231;DHT22;11784;49.818;8.632;2022-12-15T11:46:08;4.40;67.30
23231;DHT22;11784;49.818;8.632;2022-12-15T11:49:00;4.40;67.90
23231;DHT22;11784;49.818;8.632;2022-12-15T11:52:00;4.40;68.10
23231;DHT22;11784;49.818;8.632;2022-12-15T11:54:54;4.40;67.90
23231;DHT22;11784;49.818;8.632;2022-12-15T12:00:20;4.40;68.50
23231;DHT22;11784;49.818;8.632;2022-12-15T12:03:17;4.30;68.70
23231;DHT22;11784;49.818;8.632;2022-12-15T12:11:31;4.30;68.70
23231;DHT22;11784;49.818;8.632;2022-12-15T12:16:43;4.40;69.10
23231;DHT22;11784;49.818;8.632;2022-12-15T12:24:55;4.30;69.20
23231;DHT22;11784;49.818;8.632;2022-12-15T12:30:11;4.40;68.90
23231;DHT22;11784;49.818;8.632;2022-12-15T12:32:55;4.40;68.80
23231;DHT22;11784;49.818;8.632;2022-12-15T12:38:47;4.40;68.70
23231;DHT22;11784;49.818;8.632;2022-12-15T12:41:37;4.40;68.50
23231;DHT22;11784;49.818;8.632;2022-12-15T12:44:54;4.40;68.30
23231;DHT22;11784;49.818;8.632;2022-12-15T12:46:57;4.30;68.60
23231;DHT22;11784;49.818;8.632;2022-12-15T12:52:23;4.20;68.80
23231;DHT22;11784;49.818;8.632;2022-12-15T12:57:41;4.10;69.00
23231;DHT22;11784;49.818;8.632;2022-12-15T13:05:41;4.00;69.60
23231;DHT22;11784;49.818;8.632;2022-12-15T13:10:40;4.00;70.40
23231;DHT22;11784;49.818;8.632;2022-12-15T13:15:45;4.10;70.20
23231;DHT22;11784;49.818;8.632;2022-12-15T13:18:15;4.10;70.10
23231;DHT22;11784;49.818;8.632;2022-12-15T13:20:43;4.20;70.10
23231;DHT22;11784;49.818;8.632;2022-12-15T13:44:46;4.40;69.70
23231;DHT22;11784;49.818;8.632;2022-12-15T13:47:25;4.40;69.40
23231;DHT22;11784;49.818;8.632;2022-12-15T13:50:04;4.40;69.10
23231;DHT22;11784;49.818;8.632;2022-12-15T13:52:51;4.40;69.20
23231;DHT22;11784;49.818;8.632;2022-12-15T13:55:21;4.50;68.90
23231;DHT22;11784;49.818;8.632;2022-12-15T13:57:57;4.40;68.90
23231;DHT22;11784;49.818;8.632;2022-12-15T14:00:24;4.50;68.80
23231;DHT22;11784;49.818;8.632;2022-12-15T14:02:50;4.50;68.90
23231;DHT22;11784;49.818;8.632;2022-12-15T14:05:17;4.50;68.70
23231;DHT22;11784;49.818;8.632;2022-12-15T14:10:26;4.40;68.50
23231;DHT22;11784;49.818;8.632;2022-12-15T14:12:55;4.40;68.50
23231;DHT22;11784;49.818;8.632;2022-12-15T14:15:28;4.40;68.60
23231;DHT22;11784;49.818;8.632;2022-12-15T14:17:55;4.40;68.70
23231;DHT22;11784;49.818;8.632;2022-12-15T14:20:28;4.50;68.80
23231;DHT22;11784;49.818;8.632;2022-12-15T14:22:54;4.50;68.90
23231;DHT22;11784;49.818;8.632;2022-12-15T14:25:29;4.60;68.80
23231;DHT22;11784;49.818;8.632;2022-12-15T14:27:55;4.70;68.00
23231;DHT22;11784;49.818;8.632;2022-12-15T14:30:31;4.80;67.80
23231;DHT22;11784;49.818;8.632;2022-12-15T14:35:30;4.80;67.00
23231;DHT22;11784;49.818;8.632;2022-12-15T14:37:59;4.80;66.90
23231;DHT22;11784;49.818;8.632;2022-12-15T14:40:26;4.70;67.00
23231;DHT22;11784;49.818;8.632;2022-12-15T14:42:53;4.70;67.00
23231;DHT22;11784;49.818;8.632;2022-12-15T14:45:23;4.60;67.10
23231;DHT22;11784;49.818;8.632;2022-12-15T14:48:07;4.50;67.50
23231;DHT22;11784;49.818;8.632;2022-12-15T14:50:34;4.40;67.60
23231;DHT22;11784;49.818;8.632;2022-12-15T14:53:04;4.40;68.00
23231;DHT22;11784;49.818;8.632;2022-12-15T14:55:34;4.30;68.10
23231;DHT22;11784;49.818;8.632;2022-12-15T14:58:01;4.20;68.20
23231;DHT22;11784;49.818;8.632;2022-12-15T15:08:53;3.90;69.70
23231;DHT22;11784;49.818;8.632;2022-12-15T15:11:31;3.90;68.90
23231;DHT22;11784;49.818;8.632;2022-12-15T15:14:12;3.80;69.10
23231;DHT22;11784;49.818;8.632;2022-12-15T15:16:38;3.80;69.30
23231;DHT22;11784;49.818;8.632;2022-12-15T15:19:04;3.70;69.40
23231;DHT22;11784;49.818;8.632;2022-12-15T15:21:34;3.60;69.60
23231;DHT22;11784;49.818;8.632;2022-12-15T15:24:20;3.60;69.90
23231;DHT22;11784;49.818;8.632;2022-12-15T15:26:49;3.50;70.10
23231;DHT22;11784;49.818;8.632;2022-12-15T15:29:38;3.50;70.30
23231;DHT22;11784;49.818;8.632;2022-12-15T15:32:16;3.40;70.50
23231;DHT22;11784;49.818;8.632;2022-12-15T15:34:43;3.40;70.50
23231;DHT22;11784;49.818;8.632;2022-12-15T15:37:24;3.30;70.60
23231;DHT22;11784;49.818;8.632;2022-12-15T15:39:54;3.30;70.60
23231;DHT22;11784;49.818;8.632;2022-12-15T15:42:20;3.20;70.70
23231;DHT22;11784;49.818;8.632;2022-12-15T15:44:46;3.20;70.90
23231;DHT22;11784;49.818;8.632;2022-12-15T15:49:47;3.10;71.30
23231;DHT22;11784;49.818;8.632;2022-12-15T15:52:15;3.10;71.50
23231;DHT22;11784;49.818;8.632;2022-12-15T15:54:42;3.00;71.40
23231;DHT22;11784;49.818;8.632;2022-12-15T15:57:16;3.00;71.60
23231;DHT22;11784;49.818;8.632;2022-12-15T15:59:42;3.00;71.70
23231;DHT22;11784;49.818;8.632;2022-12-15T16:02:10;3.00;71.70
23231;DHT22;11784;49.818;8.632;2022-12-15T16:04:43;3.00;71.80
23231;DHT22;11784;49.818;8.632;2022-12-15T16:07:22;3.00;72.00
23231;DHT22;11784;49.818;8.632;2022-12-15T16:09:48;3.00;72.00
23231;DHT22;11784;49.818;8.632;2022-12-15T16:12:25;3.00;72.20
23231;DHT22;11784;49.818;8.632;2022-12-15T16:14:53;3.00;72.20
23231;DHT22;11784;49.818;8.632;2022-12-15T16:17:19;3.00;72.60
23231;DHT22;11784;49.818;8.632;2022-12-15T16:19:44;3.00;72.70
23231;DHT22;11784;49.818;8.632;2022-12-15T16:22:18;3.00;72.70
23231;DHT22;11784;49.818;8.632;2022-12-15T16:24:45;2.90;72.70
23231;DHT22;11784;49.818;8.632;2022-12-15T16:27:16;3.00;72.80
23231;DHT22;11784;49.818;8.632;2022-12-15T16:29:44;3.00;72.90
23231;DHT22;11784;49.818;8.632;2022-12-15T16:32:10;3.00;73.00
23231;DHT22;11784;49.818;8.632;2022-12-15T16:34:38;3.00;73.90
23231;DHT22;11784;49.818;8.632;2022-12-15T16:37:03;3.00;73.00
23231;DHT22;11784;49.818;8.632;2022-12-15T16:39:31;3.00;72.90
23231;DHT22;11784;49.818;8.632;2022-12-15T16:41:57;3.00;72.90
23231;DHT22;11784;49.818;8.632;2022-12-15T16:44:24;3.00;73.20
23231;DHT22;11784;49.818;8.632;2022-12-15T16:46:50;3.10;73.30
23231;DHT22;11784;49.818;8.632;2022-12-15T16:49:16;3.10;73.10
23231;DHT22;11784;49.818;8.632;2022-12-15T16:51:44;3.10;73.00
23231;DHT22;11784;49.818;8.632;2022-12-15T16:54:27;3.10;72.90
23231;DHT22;11784;49.818;8.632;2022-12-15T16:56:56;3.10;72.80
23231;DHT22;11784;49.818;8.632;2022-12-15T16:59:23;3.10;72.80
23231;DHT22;11784;49.818;8.632;2022-12-15T17:01:52;3.10;72.90
23231;DHT22;11784;49.818;8.632;2022-12-15T17:04:18;3.10;72.80
23231;DHT22;11784;49.818;8.632;2022-12-15T17:06:50;3.10;72.80
23231;DHT22;11784;49.818;8.632;2022-12-15T17:09:21;3.10;73.00
23231;DHT22;11784;49.818;8.632;2022-12-15T17:11:48;3.10;72.90
23231;DHT22;11784;49.818;8.632;2022-12-15T17:14:14;3.10;73.30
23231;DHT22;11784;49.818;8.632;2022-12-15T17:16:40;3.10;73.30
23231;DHT22;11784;49.818;8.632;2022-12-15T17:19:06;3.00;73.00
23231;DHT22;11784;49.818;8.632;2022-12-15T17:21:43;3.00;73.10
23231;DHT22;11784;49.818;8.632;2022-12-15T17:24:13;3.00;73.20
23231;DHT22;11784;49.818;8.632;2022-12-15T17:26:41;3.00;73.30
23231;DHT22;11784;49.818;8.632;2022-12-15T17:29:29;3.00;73.30
23231;DHT22;11784;49.818;8.632;2022-12-15T17:32:01;3.00;73.40
23231;DHT22;11784;49.818;8.632;2022-12-15T17:34:29;3.00;73.40
23231;DHT22;11784;49.818;8.632;2022-12-15T17:37:03;3.00;73.50
23231;DHT22;11784;49.818;8.632;2022-12-15T17:39:35;3.00;73.40
23231;DHT22;11784;49.818;8.632;2022-12-15T17:42:04;3.10;74.20
23231;DHT22;11784;49.818;8.632;2022-12-15T17:44:34;3.10;73.40
23231;DHT22;11784;49.818;8.632;2022-12-15T17:47:00;3.10;73.20
23231;DHT22;11784;49.818;8.632;2022-12-15T17:49:26;3.10;73.30
23231;DHT22;11784;49.818;8.632;2022-12-15T17:51:52;3.10;73.40
23231;DHT22;11784;49.818;8.632;2022-12-15T17:54:18;3.20;73.30
23231;DHT22;11784;49.818;8.632;2022-12-15T17:56:47;3.10;73.20
23231;DHT22;11784;49.818;8.632;2022-12-15T17:59:18;3.20;73.30
23231;DHT22;11784;49.818;8.632;2022-12-15T18:02:07;3.20;73.10
23231;DHT22;11784;49.818;8.632;2022-12-15T18:04:34;3.20;73.30
23231;DHT22;11784;49.818;8.632;2022-12-15T18:07:01;3.20;73.20
23231;DHT22;11784;49.818;8.632;2022-12-15T18:09:26;3.20;73.30
23231;DHT22;11784;49.818;8.632;2022-12-15T18:11:56;3.20;73.50
23231;DHT22;11784;49.818;8.632;2022-12-15T18:14:22;3.20;73.50
23231;DHT22;11784;49.818;8.632;2022-12-15T18:16:49;3.20;73.60
23231;DHT22;11784;49.818;8.632;2022-12-15T18:19:18;3.20;73.70
23231;DHT22;11784;49.818;8.632;2022-12-15T18:21:45;3.20;73.60